createdAt,value
2023-12-08T00:00:52.840Z,32.60
2023-12-08T00:03:19.883Z,34.22
2023-12-08T00:05:46.628Z,30.77
2023-12-08T00:08:13.430Z,29.13
2023-12-08T00:10:40.040Z,32.13
2023-12-08T00:13:06.631Z,31.58
2023-12-08T00:15:33.340Z,31.73
2023-12-08T00:17:59.968Z,30.75
2023-12-08T00:20:27.109Z,31.00
2023-12-08T00:22:53.909Z,29.77
2023-12-08T00:25:20.584Z,31.40
2023-12-08T00:27:47.256Z,28.75
2023-12-08T00:30:14.203Z,26.25
2023-12-08T00:32:40.990Z,26.58
2023-12-08T00:35:08.445Z,30.13
2023-12-08T00:37:35.920Z,29.98
2023-12-08T00:40:03.498Z,30.13
2023-12-08T00:42:30.061Z,28.58
2023-12-08T00:44:56.797Z,28.77
2023-12-08T00:47:23.799Z,28.27
2023-12-08T00:49:50.635Z,29.70
2023-12-08T00:52:17.301Z,27.92
2023-12-08T00:54:43.947Z,30.75
2023-12-08T00:57:10.565Z,26.95
2023-12-08T00:59:37.317Z,26.10
2023-12-08T01:02:04.092Z,30.10
2023-12-08T01:04:30.717Z,33.70
2023-12-08T01:06:57.353Z,33.08
2023-12-08T01:09:23.920Z,33.13
2023-12-08T01:11:50.540Z,24.65
2023-12-08T01:14:17.589Z,29.02
2023-12-08T01:16:44.774Z,25.38
2023-12-08T01:19:12.687Z,25.85
2023-12-08T01:21:45.576Z,25.15
2023-12-08T01:24:13.311Z,28.77
2023-12-08T01:26:46.344Z,25.75
2023-12-08T01:29:25.089Z,23.90
2023-12-08T01:31:51.734Z,25.40
2023-12-08T01:34:19.200Z,27.00
2023-12-08T01:36:51.818Z,20.33
2023-12-08T01:39:18.614Z,20.63
2023-12-08T01:41:45.239Z,25.30
2023-12-08T01:44:11.882Z,21.75
2023-12-08T01:46:38.913Z,22.25
2023-12-08T01:49:07.138Z,22.10
2023-12-08T01:51:34.577Z,23.42
2023-12-08T01:54:01.497Z,19.55
2023-12-08T01:56:28.518Z,23.83
2023-12-08T01:58:55.620Z,21.15
2023-12-08T02:01:22.343Z,23.08
2023-12-08T02:03:51.809Z,24.60
2023-12-08T02:06:20.874Z,22.48
2023-12-08T02:08:51.139Z,24.75
2023-12-08T02:11:18.679Z,21.95
2023-12-08T02:13:46.159Z,21.70
2023-12-08T02:16:56.869Z,21.40
2023-12-08T02:19:24.239Z,25.58
2023-12-08T02:21:51.122Z,23.05
2023-12-08T02:24:20.820Z,25.30
2023-12-08T02:26:49.233Z,29.20
2023-12-08T02:29:16.454Z,27.63
2023-12-08T02:31:52.993Z,29.85
2023-12-08T02:34:22.966Z,28.40
2023-12-08T02:36:51.198Z,31.48
2023-12-08T02:39:19.058Z,22.73
2023-12-08T02:41:45.764Z,30.13
2023-12-08T02:44:12.478Z,29.83
2023-12-08T02:46:40.572Z,33.80
2023-12-08T02:49:07.307Z,34.88
2023-12-08T02:51:34.049Z,33.60
2023-12-08T02:54:00.756Z,33.78
2023-12-08T02:56:27.350Z,32.97
2023-12-08T02:58:54.859Z,33.15
2023-12-08T03:01:21.516Z,35.40
2023-12-08T03:03:48.231Z,50.75
2023-12-08T03:06:15.008Z,55.42
2023-12-08T03:08:41.711Z,48.00
2023-12-08T03:11:08.294Z,33.88
2023-12-08T03:13:34.863Z,31.58
2023-12-08T03:16:01.511Z,33.63
2023-12-08T03:18:28.178Z,33.60
2023-12-08T03:20:54.820Z,35.10
2023-12-08T03:23:21.448Z,43.60
2023-12-08T03:25:48.056Z,37.33
2023-12-08T03:28:14.635Z,32.78
2023-12-08T03:30:41.293Z,32.17
2023-12-08T03:33:07.993Z,308.20
2023-12-08T03:35:34.709Z,352.17
2023-12-08T03:38:01.389Z,89.38
2023-12-08T03:40:27.946Z,68.82
2023-12-08T03:42:54.525Z,61.33
2023-12-08T03:45:21.397Z,44.92
2023-12-08T03:47:48.208Z,37.00
2023-12-08T03:50:14.979Z,34.78
2023-12-08T03:52:41.560Z,33.03
2023-12-08T03:55:08.517Z,30.42
2023-12-08T03:57:35.161Z,29.98
2023-12-08T04:00:01.871Z,29.00
2023-12-08T04:02:28.668Z,24.55
2023-12-08T04:04:55.289Z,26.63
2023-12-08T04:07:21.999Z,22.58
2023-12-08T04:09:48.637Z,31.38
2023-12-08T04:12:15.234Z,24.65
2023-12-08T04:14:43.455Z,25.42
2023-12-08T04:17:11.222Z,24.50
2023-12-08T04:19:38.448Z,24.40
2023-12-08T04:22:05.212Z,22.15
2023-12-08T04:24:31.826Z,18.55
2023-12-08T04:26:58.440Z,18.83
2023-12-08T04:29:25.062Z,19.33
2023-12-08T04:31:51.642Z,21.00
2023-12-08T04:34:18.402Z,23.85
2023-12-08T04:36:45.992Z,23.63
2023-12-08T04:39:12.679Z,25.98
2023-12-08T04:41:39.441Z,26.83
2023-12-08T04:44:06.061Z,24.90
2023-12-08T04:46:32.648Z,31.45
2023-12-08T04:48:59.355Z,26.98
2023-12-08T04:51:26.110Z,22.65
2023-12-08T04:56:24.789Z,22.98
2023-12-08T04:58:51.636Z,22.65
2023-12-08T05:01:18.284Z,22.92
2023-12-08T05:03:45.029Z,19.30
2023-12-08T05:06:11.880Z,17.70
2023-12-08T05:08:40.109Z,20.70
2023-12-08T05:11:07.384Z,23.33
2023-12-08T05:13:34.435Z,25.67
2023-12-08T05:16:01.134Z,27.25
2023-12-08T05:18:27.883Z,26.48
2023-12-08T05:20:54.627Z,29.23
2023-12-08T05:23:21.336Z,22.20
2023-12-08T05:25:47.952Z,30.15
2023-12-08T05:28:14.733Z,24.60
2023-12-08T05:30:41.304Z,23.10
2023-12-08T05:33:08.121Z,22.20
2023-12-08T05:35:34.791Z,24.92
2023-12-08T05:38:01.437Z,24.95
2023-12-08T05:40:27.996Z,26.92
2023-12-08T05:42:54.585Z,21.85
2023-12-08T05:45:21.410Z,22.95
2023-12-08T05:47:48.228Z,22.73
2023-12-08T05:50:15.032Z,20.40
2023-12-08T05:52:41.805Z,18.90
2023-12-08T05:55:08.743Z,21.88
2023-12-08T05:57:35.434Z,14.82
2023-12-08T06:00:02.648Z,16.88
2023-12-08T06:02:29.271Z,16.48
2023-12-08T06:04:55.886Z,15.60
2023-12-08T06:07:22.556Z,14.80
2023-12-08T06:09:49.271Z,15.23
2023-12-08T06:12:15.999Z,18.52
2023-12-08T06:14:42.670Z,17.02
2023-12-08T06:17:09.257Z,13.90
2023-12-08T06:19:35.937Z,14.20
2023-12-08T06:22:02.630Z,15.98
2023-12-08T06:24:29.446Z,18.77
2023-12-08T06:26:56.170Z,16.92
2023-12-08T06:29:22.822Z,16.08
2023-12-08T06:31:49.461Z,18.52
2023-12-08T06:34:17.232Z,16.45
2023-12-08T06:36:49.381Z,17.35
2023-12-08T06:39:18.887Z,15.63
2023-12-08T06:41:45.956Z,15.77
2023-12-08T06:44:12.683Z,16.70
2023-12-08T06:46:39.425Z,22.30
2023-12-08T06:49:06.509Z,14.80
2023-12-08T06:51:37.117Z,19.15
2023-12-08T06:54:05.056Z,17.70
2023-12-08T06:56:31.735Z,15.60
2023-12-08T06:59:00.874Z,18.95
2023-12-08T07:01:29.503Z,18.73
2023-12-08T07:03:56.238Z,17.35
2023-12-08T07:06:23.845Z,26.08
2023-12-08T07:08:50.648Z,21.55
2023-12-08T07:11:18.566Z,21.27
2023-12-08T07:13:45.120Z,30.15
2023-12-08T07:16:11.954Z,26.88
2023-12-08T07:18:38.947Z,27.05
2023-12-08T07:21:06.301Z,27.55
2023-12-08T07:23:33.454Z,24.65
2023-12-08T07:26:01.124Z,25.17
2023-12-08T07:28:27.735Z,24.15
2023-12-08T07:30:54.353Z,29.27
2023-12-08T07:33:22.125Z,16.00
2023-12-08T07:35:49.006Z,21.05
2023-12-08T07:38:15.606Z,17.65
2023-12-08T07:40:42.188Z,18.80
2023-12-08T07:43:08.831Z,20.85
2023-12-08T07:45:35.535Z,29.52
2023-12-08T07:48:02.309Z,22.75
2023-12-08T07:50:28.929Z,19.70
2023-12-08T07:52:55.618Z,34.30
2023-12-08T07:55:22.226Z,28.48
2023-12-08T07:57:48.825Z,21.65
2023-12-08T08:00:15.941Z,24.40
2023-12-08T08:02:42.655Z,15.25
2023-12-08T08:05:09.473Z,18.65
2023-12-08T08:07:36.192Z,16.67
2023-12-08T08:10:03.592Z,18.52
2023-12-08T08:12:33.245Z,15.82
2023-12-08T08:14:59.980Z,33.72
2023-12-08T08:17:26.841Z,32.58
2023-12-08T08:19:53.612Z,28.88
2023-12-08T08:22:30.023Z,34.70
2023-12-08T08:25:00.415Z,32.33
2023-12-08T08:27:27.530Z,56.20
2023-12-08T08:29:54.598Z,66.65
2023-12-08T08:32:21.322Z,34.78
2023-12-08T08:34:47.979Z,43.08
2023-12-08T08:37:14.674Z,41.13
2023-12-08T08:39:41.798Z,33.60
2023-12-08T08:42:08.476Z,43.10
2023-12-08T08:44:35.153Z,46.65
2023-12-08T08:47:01.775Z,35.40
2023-12-08T08:49:28.805Z,50.65
2023-12-08T08:51:55.557Z,33.10
2023-12-08T08:54:22.327Z,33.38
2023-12-08T08:56:48.973Z,29.83
2023-12-08T08:59:15.731Z,24.40
2023-12-08T09:01:43.369Z,27.23
2023-12-08T09:04:10.505Z,30.05
2023-12-08T09:06:37.374Z,25.60
2023-12-08T09:09:05.588Z,25.70
2023-12-08T09:11:32.253Z,20.45
2023-12-08T09:13:58.859Z,19.65
2023-12-08T09:16:31.192Z,21.17
2023-12-08T09:18:57.991Z,19.60
2023-12-08T09:21:24.668Z,19.75
2023-12-08T09:23:51.271Z,21.35
2023-12-08T09:26:17.910Z,20.08
2023-12-08T09:28:44.519Z,29.35
2023-12-08T09:31:11.096Z,31.50
2023-12-08T09:33:37.983Z,39.13
2023-12-08T09:36:05.328Z,26.75
2023-12-08T09:38:34.509Z,26.58
2023-12-08T09:41:05.641Z,26.67
2023-12-08T09:43:57.315Z,26.83
2023-12-08T09:46:24.706Z,23.27
2023-12-08T09:48:53.116Z,29.02
2023-12-08T09:51:20.609Z,25.45
2023-12-08T09:53:49.546Z,28.10
2023-12-08T09:56:17.627Z,26.70
2023-12-08T09:58:46.523Z,29.27
2023-12-08T10:01:15.104Z,25.50
2023-12-08T10:03:42.315Z,26.95
2023-12-08T10:06:11.211Z,25.90
2023-12-08T10:08:38.388Z,22.48
2023-12-08T10:11:06.974Z,24.77
2023-12-08T10:13:34.199Z,22.15
2023-12-08T10:16:01.252Z,26.77
2023-12-08T10:18:29.879Z,28.02
2023-12-08T10:21:20.557Z,23.77
2023-12-08T10:23:48.040Z,27.52
2023-12-08T10:26:16.684Z,21.10
2023-12-08T10:28:44.262Z,18.20
2023-12-08T10:31:10.957Z,19.08
2023-12-08T10:33:37.716Z,24.65
2023-12-08T10:36:04.825Z,19.08
2023-12-08T10:38:31.579Z,21.13
2023-12-08T10:40:58.205Z,21.13
2023-12-08T10:43:26.715Z,19.63
2023-12-08T10:45:54.401Z,21.63
2023-12-08T10:48:22.468Z,21.63
2023-12-08T10:50:53.927Z,23.10
2023-12-08T10:53:22.298Z,26.05
2023-12-08T10:56:10.763Z,21.08
2023-12-08T10:58:43.208Z,18.50
2023-12-08T11:01:14.329Z,25.05
2023-12-08T11:03:54.143Z,24.85
2023-12-08T11:06:34.996Z,25.38
2023-12-08T11:09:07.655Z,25.58
2023-12-08T11:11:39.048Z,24.80
2023-12-08T11:14:14.305Z,25.90
2023-12-08T11:16:50.318Z,27.38
2023-12-08T11:19:20.333Z,29.35
2023-12-08T11:21:47.833Z,25.50
2023-12-08T11:24:15.079Z,24.92
2023-12-08T11:27:07.794Z,24.55
2023-12-08T11:29:59.306Z,27.75
2023-12-08T11:32:39.541Z,29.33
2023-12-08T11:35:13.480Z,25.55
2023-12-08T11:37:42.146Z,27.10
2023-12-08T11:40:12.433Z,26.92
2023-12-08T11:42:40.726Z,24.10
2023-12-08T11:45:12.071Z,25.92
2023-12-08T11:47:39.106Z,28.67
2023-12-08T11:50:06.698Z,28.50
2023-12-08T11:52:34.889Z,25.77
2023-12-08T11:55:17.454Z,29.08
2023-12-08T11:58:04.291Z,29.52
2023-12-08T12:00:32.805Z,29.63
2023-12-08T12:03:00.465Z,23.73
2023-12-08T12:05:27.787Z,24.42
2023-12-08T12:07:56.080Z,23.83
2023-12-08T12:10:27.166Z,23.08
2023-12-08T12:12:59.199Z,27.73
2023-12-08T12:15:26.950Z,27.17
2023-12-08T12:17:53.973Z,27.42
2023-12-08T12:20:21.141Z,24.10
2023-12-08T12:22:47.782Z,24.08
2023-12-08T12:25:14.457Z,31.70
2023-12-08T12:27:46.323Z,24.90
2023-12-08T12:30:13.735Z,24.33
2023-12-08T12:32:41.363Z,24.98
2023-12-08T12:35:08.924Z,24.58
2023-12-08T12:37:35.988Z,18.05
2023-12-08T12:40:02.630Z,15.63
2023-12-08T12:42:29.462Z,16.67
2023-12-08T12:44:56.129Z,17.80
2023-12-08T12:47:27.715Z,21.83
2023-12-08T12:50:08.644Z,19.17
2023-12-08T12:52:41.615Z,26.33
2023-12-08T12:55:30.381Z,23.00
2023-12-08T12:57:57.052Z,21.80
2023-12-08T13:00:35.778Z,25.80
2023-12-08T13:03:10.637Z,19.63
2023-12-08T13:05:48.011Z,23.70
2023-12-08T13:08:16.969Z,21.00
2023-12-08T13:10:45.451Z,22.60
2023-12-08T13:13:13.531Z,17.60
2023-12-08T13:15:41.205Z,23.92
2023-12-08T13:18:08.349Z,23.13
2023-12-08T13:20:41.903Z,18.95
2023-12-08T13:23:08.952Z,23.13
2023-12-08T13:25:35.630Z,15.55
2023-12-08T13:28:02.343Z,21.70
2023-12-08T13:30:29.259Z,15.27
2023-12-08T13:32:56.968Z,15.88
2023-12-08T13:35:23.963Z,14.02
2023-12-08T13:37:50.875Z,17.88
2023-12-08T13:40:17.575Z,14.82
2023-12-08T13:42:44.550Z,14.68
2023-12-08T13:45:11.414Z,15.20
2023-12-08T13:47:38.124Z,16.13
2023-12-08T13:50:05.373Z,15.93
2023-12-08T13:52:32.019Z,16.02
2023-12-08T13:54:58.675Z,17.77
2023-12-08T13:57:25.805Z,17.15
2023-12-08T13:59:53.821Z,21.77
2023-12-08T14:02:20.814Z,18.42
2023-12-08T14:04:47.546Z,18.98
2023-12-08T14:07:14.426Z,19.10
2023-12-08T14:09:42.816Z,15.80
2023-12-08T14:12:10.599Z,20.40
2023-12-08T14:14:37.607Z,14.93
2023-12-08T14:17:04.815Z,18.92
2023-12-08T14:19:31.533Z,16.75
2023-12-08T14:21:59.763Z,17.85
2023-12-08T14:24:27.045Z,21.48
2023-12-08T14:26:57.258Z,18.73
2023-12-08T14:29:24.037Z,14.65
2023-12-08T14:31:50.861Z,16.20
2023-12-08T14:34:17.707Z,16.38
2023-12-08T14:36:46.483Z,20.35
2023-12-08T14:39:13.156Z,18.38
2023-12-08T14:41:40.121Z,18.10
2023-12-08T14:44:06.715Z,14.68
2023-12-08T14:46:34.520Z,22.02
2023-12-08T14:49:01.609Z,24.10
2023-12-08T14:51:28.415Z,23.42
2023-12-08T14:53:55.583Z,26.55
2023-12-08T14:56:22.293Z,28.13
2023-12-08T14:58:49.166Z,43.30
2023-12-08T15:01:18.606Z,40.30
2023-12-08T15:03:46.261Z,40.85
2023-12-08T15:06:16.157Z,46.78
2023-12-08T15:08:43.507Z,44.45
2023-12-08T15:11:10.942Z,42.65
2023-12-08T15:13:37.788Z,42.55
2023-12-08T15:16:04.933Z,39.47
2023-12-08T15:18:31.769Z,41.50
2023-12-08T15:21:00.195Z,46.80
2023-12-08T15:23:32.998Z,51.08
2023-12-08T15:26:00.403Z,45.85
2023-12-08T15:28:27.051Z,46.00
2023-12-08T15:30:53.672Z,60.22
2023-12-08T15:33:22.214Z,43.70
2023-12-08T15:35:49.206Z,49.47
2023-12-08T15:38:15.921Z,48.35
2023-12-08T15:40:43.071Z,46.92
2023-12-08T15:43:09.792Z,46.97
2023-12-08T15:45:39.650Z,49.30
2023-12-08T15:48:06.438Z,46.75
2023-12-08T15:50:33.186Z,50.42
2023-12-08T15:53:00.190Z,49.17
2023-12-08T15:55:26.782Z,53.60
2023-12-08T15:57:53.875Z,51.05
2023-12-08T16:00:21.140Z,46.67
2023-12-08T16:02:48.037Z,55.20
2023-12-08T16:05:14.830Z,49.65
2023-12-08T16:07:42.957Z,57.28
2023-12-08T16:10:10.587Z,57.85
2023-12-08T16:12:37.337Z,51.28
2023-12-08T16:15:05.042Z,53.13
2023-12-08T16:17:32.231Z,44.05
2023-12-08T16:19:58.916Z,47.25
2023-12-08T16:22:25.737Z,49.10
2023-12-08T16:24:52.474Z,51.95
2023-12-08T16:27:19.123Z,50.45
2023-12-08T16:29:46.478Z,52.25
2023-12-08T16:32:13.949Z,52.95
2023-12-08T16:34:40.857Z,56.95
2023-12-08T16:37:07.802Z,51.78
2023-12-08T16:39:34.964Z,50.30
2023-12-08T16:42:01.846Z,62.08
2023-12-08T16:44:28.620Z,49.20
2023-12-08T16:46:55.407Z,48.60
2023-12-08T16:49:22.644Z,56.78
2023-12-08T16:51:51.183Z,54.80
2023-12-08T16:54:18.402Z,55.42
2023-12-08T16:56:45.266Z,52.67
2023-12-08T16:59:11.955Z,56.63
2023-12-08T17:01:39.122Z,63.13
2023-12-08T17:04:05.900Z,59.13
2023-12-08T17:06:33.526Z,52.40
2023-12-08T17:09:00.420Z,54.08
2023-12-08T17:11:27.044Z,54.00
2023-12-08T17:13:55.080Z,52.28
2023-12-08T17:16:22.009Z,61.58
2023-12-08T17:18:48.758Z,64.80
2023-12-08T17:21:15.497Z,74.72
2023-12-08T17:23:42.108Z,63.25
2023-12-08T17:26:08.804Z,58.65
2023-12-08T17:28:35.470Z,62.90
2023-12-08T17:31:02.188Z,58.22
2023-12-08T17:33:28.858Z,68.90
2023-12-08T17:35:55.573Z,68.70
2023-12-08T17:38:22.284Z,58.25
2023-12-08T17:40:49.950Z,56.40
2023-12-08T17:43:16.644Z,68.05
2023-12-08T17:45:43.351Z,63.60
2023-12-08T17:48:10.240Z,61.78
2023-12-08T17:50:36.909Z,63.97
2023-12-08T17:53:03.483Z,63.05
2023-12-08T17:55:30.127Z,63.90
2023-12-08T17:57:56.762Z,65.63
2023-12-08T18:00:24.507Z,64.53
2023-12-08T18:02:55.967Z,66.10
2023-12-08T18:05:22.924Z,66.77
2023-12-08T18:07:49.575Z,72.15
2023-12-08T18:10:16.303Z,66.68
2023-12-08T18:12:43.310Z,73.47
2023-12-08T18:15:10.545Z,66.10
2023-12-08T18:17:40.289Z,71.78
2023-12-08T18:20:07.952Z,76.80
2023-12-08T18:22:35.188Z,69.03
2023-12-08T18:25:01.779Z,64.40
2023-12-08T18:27:39.816Z,63.63
2023-12-08T18:30:15.664Z,68.10
2023-12-08T18:32:43.226Z,67.10
2023-12-08T18:35:10.028Z,66.30
2023-12-08T18:37:36.681Z,67.28
2023-12-08T18:40:04.554Z,59.38
2023-12-08T18:42:31.612Z,61.38
2023-12-08T18:44:58.499Z,69.15
2023-12-08T18:47:25.239Z,71.45
2023-12-08T18:49:51.987Z,72.40
2023-12-08T18:52:18.754Z,76.88
2023-12-08T18:54:45.369Z,79.68
2023-12-08T18:57:14.741Z,74.78
2023-12-08T18:59:41.903Z,74.47
2023-12-08T19:02:08.721Z,70.25
2023-12-08T19:04:35.482Z,67.32
2023-12-08T19:07:05.204Z,69.43
2023-12-08T19:09:32.052Z,66.32
2023-12-08T19:12:01.071Z,71.03
2023-12-08T19:14:29.542Z,72.82
2023-12-08T19:16:56.232Z,73.20
2023-12-08T19:19:25.152Z,72.30
2023-12-08T19:21:51.741Z,62.08
2023-12-08T19:24:18.695Z,64.68
2023-12-08T19:26:45.431Z,64.25
2023-12-08T19:29:12.127Z,65.22
2023-12-08T19:31:38.840Z,66.05
2023-12-08T19:34:05.910Z,66.28
2023-12-08T19:36:32.746Z,65.35
2023-12-08T19:39:01.049Z,67.63
2023-12-08T19:41:28.168Z,66.18
2023-12-08T19:43:55.796Z,60.88
2023-12-08T19:46:22.500Z,63.15
2023-12-08T19:48:49.269Z,67.38
2023-12-08T19:51:16.145Z,67.13
2023-12-08T19:53:43.047Z,69.53
2023-12-08T19:56:10.155Z,68.38
2023-12-08T19:58:36.839Z,69.47
2023-12-08T20:01:06.314Z,71.18
2023-12-08T20:03:33.429Z,66.78
2023-12-08T20:06:00.570Z,68.03
2023-12-08T20:08:28.348Z,69.80
2023-12-08T20:10:57.890Z,66.60
2023-12-08T20:13:24.633Z,63.55
2023-12-08T20:15:51.297Z,64.88
2023-12-08T20:18:18.201Z,62.63
2023-12-08T20:20:44.888Z,65.90
2023-12-08T20:23:12.611Z,68.53
2023-12-08T20:25:39.942Z,63.15
2023-12-08T20:28:06.757Z,66.18
2023-12-08T20:30:34.789Z,62.67
2023-12-08T20:33:02.897Z,66.63
2023-12-08T20:35:29.581Z,56.25
2023-12-08T20:37:56.571Z,63.85
2023-12-08T20:40:23.166Z,64.85
2023-12-08T20:42:49.964Z,68.57
2023-12-08T20:45:16.807Z,65.80
2023-12-08T20:47:43.694Z,65.63
2023-12-08T20:50:10.739Z,65.20
2023-12-08T20:52:37.543Z,62.03
2023-12-08T20:55:04.718Z,67.15
2023-12-08T20:57:31.550Z,61.58
2023-12-08T20:59:58.268Z,57.50
2023-12-08T21:02:25.051Z,59.45
2023-12-08T21:04:52.022Z,64.07
2023-12-08T21:07:18.852Z,62.33
2023-12-08T21:09:45.491Z,60.45
2023-12-08T21:12:12.558Z,57.03
2023-12-08T21:14:39.219Z,65.05
2023-12-08T21:17:05.854Z,63.25
2023-12-08T21:19:32.757Z,63.08
2023-12-08T21:22:02.626Z,76.30
2023-12-08T21:24:29.615Z,82.40
2023-12-08T21:26:56.257Z,72.10
2023-12-08T21:29:23.983Z,70.13
2023-12-08T21:31:52.250Z,68.78
2023-12-08T21:34:19.000Z,63.65
2023-12-08T21:36:45.867Z,75.53
2023-12-08T21:39:12.673Z,76.43
2023-12-08T21:41:39.387Z,71.63
2023-12-08T21:44:07.721Z,72.90
2023-12-08T21:46:34.783Z,65.15
2023-12-08T21:49:01.972Z,65.05
2023-12-08T21:51:30.789Z,65.82
2023-12-08T21:53:57.853Z,74.03
2023-12-08T21:56:29.562Z,73.00
2023-12-08T21:58:58.577Z,69.93
2023-12-08T22:01:25.521Z,64.18
2023-12-08T22:03:52.831Z,66.15
2023-12-08T22:06:19.547Z,69.95
2023-12-08T22:08:46.497Z,72.90
2023-12-08T22:11:13.094Z,72.20
2023-12-08T22:13:39.974Z,71.70
2023-12-08T22:16:07.028Z,71.80
2023-12-08T22:18:34.008Z,76.05
2023-12-08T22:21:00.844Z,63.38
2023-12-08T22:23:28.125Z,65.25
2023-12-08T22:25:54.703Z,66.53
2023-12-08T22:28:24.175Z,65.88
2023-12-08T22:30:50.878Z,71.82
2023-12-08T22:33:17.620Z,67.75
2023-12-08T22:35:44.458Z,65.03
2023-12-08T22:38:12.241Z,60.10
2023-12-08T22:40:38.867Z,65.93
2023-12-08T22:43:05.531Z,61.85
2023-12-08T22:45:34.010Z,72.70
2023-12-08T22:48:01.128Z,71.53
2023-12-08T22:50:35.433Z,63.85
2023-12-08T22:53:05.601Z,66.55
2023-12-08T22:55:32.177Z,67.25
2023-12-08T22:57:58.966Z,63.50
2023-12-08T23:00:25.747Z,68.40
2023-12-08T23:02:53.209Z,64.70
2023-12-08T23:05:20.393Z,63.60
2023-12-08T23:07:47.124Z,64.55
2023-12-08T23:10:14.134Z,62.05
2023-12-08T23:12:41.429Z,71.25
2023-12-08T23:15:09.441Z,66.57
2023-12-08T23:17:37.196Z,64.90
2023-12-08T23:20:04.315Z,67.80
2023-12-08T23:22:30.911Z,73.75
2023-12-08T23:24:57.539Z,63.60
2023-12-08T23:27:24.173Z,60.50
2023-12-08T23:29:50.840Z,70.72
2023-12-08T23:32:17.439Z,58.85
2023-12-08T23:34:44.423Z,69.63
2023-12-08T23:37:11.239Z,67.28
2023-12-08T23:39:39.523Z,65.32
2023-12-08T23:42:06.805Z,69.95
2023-12-08T23:44:33.675Z,72.60
2023-12-08T23:47:00.740Z,72.35
2023-12-08T23:49:27.544Z,60.22
2023-12-08T23:51:54.244Z,68.90
2023-12-08T23:54:20.936Z,64.53
2023-12-08T23:56:47.507Z,65.35
2023-12-08T23:59:14.439Z,64.28
